createdAt,value
2022-12-04T00:01:45.622Z,56.80
2022-12-04T00:04:13.862Z,60.70
2022-12-04T00:06:43.171Z,62.10
2022-12-04T00:09:11.372Z,59.90
2022-12-04T00:11:39.913Z,62.70
2022-12-04T00:14:08.263Z,63.40
2022-12-04T00:16:36.628Z,66.20
2022-12-04T00:19:05.655Z,62.60
2022-12-04T00:21:34.114Z,63.90
2022-12-04T00:24:02.317Z,65.80
2022-12-04T00:26:31.362Z,67.90
2022-12-04T00:29:00.511Z,70.20
2022-12-04T00:31:30.775Z,71.50
2022-12-04T00:34:00.336Z,70.10
2022-12-04T00:36:29.618Z,70.30
2022-12-04T00:39:00.030Z,78.50
2022-12-04T00:41:30.796Z,69.50
2022-12-04T00:44:00.451Z,71.60
2022-12-04T00:46:29.948Z,71.30
2022-12-04T00:49:01.916Z,62.60
2022-12-04T00:51:30.367Z,71.00
2022-12-04T00:53:58.598Z,77.10
2022-12-04T00:56:28.769Z,64.70
2022-12-04T00:58:59.539Z,71.20
2022-12-04T01:01:29.756Z,76.70
2022-12-04T01:03:58.011Z,71.00
2022-12-04T01:06:28.492Z,69.40
2022-12-04T01:08:57.996Z,72.00
2022-12-04T01:11:28.064Z,82.10
2022-12-04T01:13:57.554Z,74.70
2022-12-04T01:16:29.507Z,74.30
2022-12-04T01:18:58.162Z,75.40
2022-12-04T01:21:27.014Z,66.70
2022-12-04T01:23:55.482Z,68.90
2022-12-04T01:26:24.043Z,73.10
2022-12-04T01:28:52.307Z,68.20
2022-12-04T01:31:22.473Z,73.10
2022-12-04T01:33:51.460Z,75.90
2022-12-04T01:36:22.828Z,73.30
2022-12-04T01:38:51.507Z,60.00
2022-12-04T01:41:24.301Z,85.80
2022-12-04T01:44:10.936Z,69.60
2022-12-04T01:46:41.475Z,70.00
2022-12-04T01:49:14.753Z,78.10
2022-12-04T01:54:22.789Z,64.80
2022-12-04T01:56:57.393Z,65.70
2022-12-04T01:59:32.334Z,73.60
2022-12-04T02:02:11.044Z,68.00
2022-12-04T02:04:40.994Z,64.60
2022-12-04T02:07:09.810Z,70.60
2022-12-04T02:09:40.034Z,75.00
2022-12-04T02:12:14.403Z,68.90
2022-12-04T02:14:51.764Z,78.80
2022-12-04T02:17:28.616Z,71.80
2022-12-04T02:20:11.234Z,69.70
2022-12-04T02:23:04.171Z,75.70
2022-12-04T02:25:48.127Z,78.50
2022-12-04T02:28:28.761Z,77.00
2022-12-04T02:31:01.449Z,72.50
2022-12-04T02:33:44.766Z,68.10
2022-12-04T02:36:22.958Z,66.00
2022-12-04T02:39:02.316Z,70.20
2022-12-04T02:41:42.755Z,56.90
2022-12-04T02:44:29.469Z,65.50
2022-12-04T02:47:02.604Z,74.20
2022-12-04T02:49:37.324Z,69.90
2022-12-04T02:52:10.766Z,68.10
2022-12-04T02:54:47.027Z,71.00
2022-12-04T02:57:25.997Z,70.70
2022-12-04T02:59:57.857Z,65.00
2022-12-04T03:02:41.722Z,69.20
2022-12-04T03:07:52.207Z,70.90
2022-12-04T03:10:30.859Z,66.50
2022-12-04T03:13:07.160Z,62.80
2022-12-04T03:15:41.937Z,65.50
2022-12-04T03:18:13.714Z,64.60
2022-12-04T03:20:43.604Z,65.30
2022-12-04T03:23:29.488Z,61.60
2022-12-04T03:26:04.812Z,62.20
2022-12-04T03:28:44.660Z,67.70
2022-12-04T03:31:15.476Z,62.10
2022-12-04T03:33:47.761Z,68.90
2022-12-04T03:36:31.569Z,61.60
2022-12-04T03:39:11.941Z,63.90
2022-12-04T03:41:50.213Z,59.60
2022-12-04T03:44:25.358Z,61.80
2022-12-04T03:47:04.764Z,68.10
2022-12-04T03:50:00.298Z,63.50
2022-12-04T03:52:45.733Z,67.50
2022-12-04T03:55:17.984Z,65.40
2022-12-04T03:57:48.376Z,62.60
2022-12-04T04:00:22.357Z,64.20
2022-12-04T04:02:54.263Z,64.70
2022-12-04T04:05:24.135Z,59.10
2022-12-04T04:08:18.799Z,72.30
2022-12-04T04:10:49.224Z,68.60
2022-12-04T04:13:40.620Z,66.30
2022-12-04T04:16:33.413Z,62.50
2022-12-04T04:19:21.744Z,67.90
2022-12-04T04:22:12.128Z,72.00
2022-12-04T04:24:47.865Z,59.80
2022-12-04T04:27:15.986Z,64.30
2022-12-04T04:29:51.849Z,73.60
2022-12-04T04:32:55.613Z,63.60
2022-12-04T04:36:03.572Z,68.90
2022-12-04T04:38:48.108Z,65.00
2022-12-04T04:41:33.358Z,67.00
2022-12-04T04:44:15.985Z,64.30
2022-12-04T04:46:49.852Z,64.40
2022-12-04T04:49:22.457Z,72.20
2022-12-04T04:51:50.940Z,73.80
2022-12-04T04:54:20.148Z,70.10
2022-12-04T04:56:48.565Z,69.90
2022-12-04T04:59:16.789Z,75.70
2022-12-04T05:01:46.665Z,76.40
2022-12-04T05:04:15.293Z,70.20
2022-12-04T05:06:43.669Z,71.60
2022-12-04T05:09:11.915Z,75.30
2022-12-04T05:11:40.368Z,67.40
2022-12-04T05:14:09.721Z,70.10
2022-12-04T05:16:40.813Z,71.60
2022-12-04T05:19:27.586Z,63.60
2022-12-04T05:21:57.245Z,72.40
2022-12-04T05:24:25.391Z,61.30
2022-12-04T05:26:54.028Z,74.00
2022-12-04T05:29:22.295Z,77.30
2022-12-04T05:31:50.843Z,70.60
2022-12-04T05:34:19.120Z,66.90
2022-12-04T05:36:47.507Z,69.10
2022-12-04T05:39:15.646Z,70.30
2022-12-04T05:41:43.907Z,66.40
2022-12-04T05:44:12.136Z,66.80
2022-12-04T05:46:40.518Z,71.00
2022-12-04T05:49:08.778Z,70.60
2022-12-04T05:51:37.125Z,68.80
2022-12-04T05:54:05.319Z,61.70
2022-12-04T05:56:33.648Z,65.10
2022-12-04T05:59:01.850Z,69.10
2022-12-04T06:01:30.043Z,67.80
2022-12-04T06:03:58.287Z,66.00
2022-12-04T06:06:27.167Z,59.60
2022-12-04T06:08:58.952Z,62.40
2022-12-04T06:11:32.716Z,66.10
2022-12-04T06:14:03.478Z,66.10
2022-12-04T06:16:36.835Z,53.30
2022-12-04T06:21:37.054Z,63.40
2022-12-04T06:24:06.075Z,58.00
2022-12-04T06:26:34.595Z,61.90
2022-12-04T06:29:02.812Z,60.80
2022-12-04T06:31:31.290Z,60.40
2022-12-04T06:33:59.932Z,55.10
2022-12-04T06:36:28.260Z,60.90
2022-12-04T06:38:58.351Z,59.90
2022-12-04T06:41:27.859Z,62.30
2022-12-04T06:43:56.510Z,62.50
2022-12-04T06:46:27.544Z,62.70
2022-12-04T06:48:58.271Z,64.80
2022-12-04T06:51:26.699Z,61.60
2022-12-04T06:53:55.057Z,66.10
2022-12-04T06:56:26.008Z,63.70
2022-12-04T06:58:56.815Z,65.80
2022-12-04T07:01:27.372Z,61.10
2022-12-04T07:03:57.018Z,62.80
2022-12-04T07:06:28.894Z,63.10
2022-12-04T07:09:05.704Z,60.70
2022-12-04T07:11:35.166Z,68.80
2022-12-04T07:14:04.108Z,58.60
2022-12-04T07:16:40.041Z,66.50
2022-12-04T07:19:13.379Z,63.40
2022-12-04T07:21:42.625Z,63.80
2022-12-04T07:24:16.406Z,59.70
2022-12-04T07:26:45.165Z,63.30
2022-12-04T07:29:13.699Z,55.60
2022-12-04T07:31:42.303Z,61.50
2022-12-04T07:34:10.579Z,62.40
2022-12-04T07:36:40.616Z,58.50
2022-12-04T07:39:08.954Z,63.70
2022-12-04T07:41:37.891Z,65.70
2022-12-04T07:44:07.459Z,59.30
2022-12-04T07:46:35.936Z,56.10
2022-12-04T07:49:04.204Z,60.60
2022-12-04T07:51:32.777Z,58.60
2022-12-04T07:54:04.139Z,65.70
2022-12-04T07:56:33.714Z,55.50
2022-12-04T07:59:02.523Z,61.00
2022-12-04T08:01:31.754Z,64.40
2022-12-04T08:04:03.218Z,55.00
2022-12-04T08:06:34.826Z,63.10
2022-12-04T08:09:09.572Z,55.40
2022-12-04T08:11:39.182Z,57.70
2022-12-04T08:14:09.130Z,56.20
2022-12-04T08:16:38.175Z,60.60
2022-12-04T08:19:06.776Z,65.60
2022-12-04T08:21:35.113Z,64.00
2022-12-04T08:24:03.487Z,65.70
2022-12-04T08:26:33.900Z,59.00
2022-12-04T08:29:03.653Z,56.80
2022-12-04T08:31:34.213Z,51.70
2022-12-04T08:34:05.956Z,52.90
2022-12-04T08:36:34.604Z,60.20
2022-12-04T08:39:03.277Z,61.30
2022-12-04T08:41:31.472Z,60.50
2022-12-04T08:44:01.165Z,46.50
2022-12-04T08:46:29.684Z,57.10
2022-12-04T08:48:58.332Z,55.90
2022-12-04T08:51:30.196Z,53.00
2022-12-04T08:54:01.354Z,52.80
2022-12-04T08:56:30.752Z,49.30
2022-12-04T08:59:00.056Z,52.30
2022-12-04T09:01:29.708Z,53.10
2022-12-04T09:03:58.432Z,52.70
2022-12-04T09:06:27.009Z,58.20
2022-12-04T09:08:56.963Z,51.90
2022-12-04T09:11:27.811Z,52.00
2022-12-04T09:13:56.442Z,60.60
2022-12-04T09:16:26.191Z,56.60
2022-12-04T09:18:55.092Z,51.20
2022-12-04T09:21:24.883Z,55.10
2022-12-04T09:23:53.120Z,51.40
2022-12-04T09:26:30.144Z,54.70
2022-12-04T09:29:00.584Z,54.10
2022-12-04T09:31:29.497Z,50.30
2022-12-04T09:33:58.867Z,54.70
2022-12-04T09:36:27.587Z,53.50
2022-12-04T09:38:55.811Z,51.60
2022-12-04T09:42:00.927Z,46.70
2022-12-04T09:44:40.591Z,51.50
2022-12-04T09:47:25.720Z,47.10
2022-12-04T09:49:59.130Z,51.50
2022-12-04T09:52:39.621Z,58.40
2022-12-04T09:55:16.080Z,58.20
2022-12-04T09:57:48.647Z,57.90
2022-12-04T10:00:19.058Z,55.80
2022-12-04T10:02:55.411Z,51.70
2022-12-04T10:05:58.980Z,58.70
2022-12-04T10:08:40.629Z,49.60
2022-12-04T10:11:32.199Z,59.50
2022-12-04T10:14:29.551Z,56.20
2022-12-04T10:17:16.084Z,65.40
2022-12-04T10:19:54.589Z,63.20
2022-12-04T10:23:02.665Z,58.30
2022-12-04T10:25:35.189Z,64.10
2022-12-04T10:28:30.319Z,56.90
2022-12-04T10:31:02.326Z,61.10
2022-12-04T10:33:42.149Z,65.30
2022-12-04T10:36:17.387Z,63.70
2022-12-04T10:38:56.503Z,65.20
2022-12-04T10:41:27.199Z,63.50
2022-12-04T10:43:55.891Z,64.40
2022-12-04T10:46:29.546Z,69.10
2022-12-04T10:49:07.051Z,61.90
2022-12-04T10:51:40.934Z,62.70
2022-12-04T10:54:23.498Z,58.20
2022-12-04T10:56:57.998Z,57.50
2022-12-04T10:59:27.975Z,56.20
2022-12-04T11:02:17.763Z,65.20
2022-12-04T11:04:57.236Z,75.10
2022-12-04T11:07:32.459Z,65.80
2022-12-04T11:10:05.336Z,58.90
2022-12-04T11:12:33.891Z,58.40
2022-12-04T11:15:08.111Z,52.60
2022-12-04T11:17:36.790Z,50.50
2022-12-04T11:20:09.211Z,50.70
2022-12-04T11:22:50.739Z,51.00
2022-12-04T11:25:21.272Z,48.90
2022-12-04T11:27:53.332Z,53.20
2022-12-04T11:30:26.413Z,51.50
2022-12-04T11:32:55.623Z,48.30
2022-12-04T11:35:27.803Z,62.10
2022-12-04T11:38:08.221Z,60.10
2022-12-04T11:40:36.987Z,61.80
2022-12-04T11:43:13.566Z,57.90
2022-12-04T11:45:42.578Z,56.90
2022-12-04T11:48:18.687Z,59.00
2022-12-04T11:51:08.985Z,54.50
2022-12-04T11:53:55.987Z,49.90
2022-12-04T11:56:27.326Z,52.90
2022-12-04T11:59:17.013Z,53.00
2022-12-04T12:02:10.276Z,52.90
2022-12-04T12:05:08.272Z,48.30
2022-12-04T12:07:48.917Z,55.30
2022-12-04T12:10:46.723Z,47.90
2022-12-04T12:13:42.983Z,48.30
2022-12-04T12:16:23.871Z,52.90
2022-12-04T12:19:02.788Z,59.20
2022-12-04T12:21:50.000Z,54.00
2022-12-04T12:24:21.292Z,51.10
2022-12-04T12:27:19.306Z,53.60
2022-12-04T12:29:56.788Z,45.20
2022-12-04T12:32:32.943Z,52.20
2022-12-04T12:35:03.054Z,50.60
2022-12-04T12:37:40.273Z,48.60
2022-12-04T12:40:28.075Z,51.40
2022-12-04T12:43:02.102Z,57.30
2022-12-04T12:45:36.133Z,51.70
2022-12-04T12:48:28.815Z,48.70
2022-12-04T12:51:32.451Z,55.10
2022-12-04T12:54:22.038Z,51.10
2022-12-04T12:56:56.631Z,51.70
2022-12-04T12:59:28.596Z,52.50
2022-12-04T13:02:06.074Z,56.20
2022-12-04T13:04:40.661Z,54.20
2022-12-04T13:07:47.953Z,56.50
2022-12-04T13:10:20.963Z,54.50
2022-12-04T13:12:58.501Z,49.30
2022-12-04T13:15:51.938Z,53.80
2022-12-04T13:18:43.934Z,53.30
2022-12-04T13:21:28.540Z,53.50
2022-12-04T13:24:29.809Z,50.20
2022-12-04T13:27:14.491Z,54.90
2022-12-04T13:30:14.660Z,53.70
2022-12-04T13:32:45.772Z,51.80
2022-12-04T13:35:37.141Z,54.00
2022-12-04T13:38:26.419Z,54.40
2022-12-04T13:40:59.789Z,54.50
2022-12-04T13:46:03.363Z,52.10
2022-12-04T13:48:37.002Z,55.20
2022-12-04T13:51:35.353Z,58.90
2022-12-04T13:54:36.691Z,54.50
2022-12-04T13:57:17.775Z,55.10
2022-12-04T13:59:48.955Z,53.30
2022-12-04T14:02:35.426Z,54.60
2022-12-04T14:05:12.829Z,47.00
2022-12-04T14:08:17.126Z,49.90
2022-12-04T14:10:57.020Z,51.60
2022-12-04T14:13:31.744Z,49.70
2022-12-04T14:16:16.842Z,51.80
2022-12-04T14:18:51.281Z,49.00
2022-12-04T14:21:19.608Z,49.90
2022-12-04T14:23:49.002Z,47.70
2022-12-04T14:26:22.473Z,52.50
2022-12-04T14:31:28.097Z,44.30
2022-12-04T14:34:04.280Z,44.60
2022-12-04T14:36:42.409Z,53.90
2022-12-04T14:39:29.317Z,47.00
2022-12-04T14:42:15.101Z,53.40
2022-12-04T14:44:46.361Z,49.30
2022-12-04T14:47:35.064Z,50.00
2022-12-04T14:50:11.083Z,49.60
2022-12-04T14:53:27.097Z,50.30
2022-12-04T14:56:13.627Z,47.50
2022-12-04T14:58:43.506Z,50.30
2022-12-04T15:01:32.778Z,48.10
2022-12-04T15:04:12.392Z,49.20
2022-12-04T15:06:41.523Z,49.70
2022-12-04T15:09:35.258Z,45.40
2022-12-04T15:12:35.218Z,46.70
2022-12-04T15:15:22.122Z,42.90
2022-12-04T15:18:04.294Z,49.00
2022-12-04T15:20:41.600Z,42.40
2022-12-04T15:23:15.913Z,49.10
2022-12-04T15:25:58.690Z,46.60
2022-12-04T15:28:49.328Z,49.90
2022-12-04T15:31:48.444Z,44.90
2022-12-04T15:34:21.527Z,43.50
2022-12-04T15:37:07.866Z,46.40
2022-12-04T15:39:38.275Z,47.10
2022-12-04T15:42:24.956Z,42.00
2022-12-04T15:45:08.491Z,42.60
2022-12-04T15:47:43.037Z,50.20
2022-12-04T15:50:31.959Z,40.80
2022-12-04T15:53:00.503Z,44.10
2022-12-04T15:55:36.936Z,43.70
2022-12-04T15:58:17.001Z,44.00
2022-12-04T16:00:45.591Z,38.40
2022-12-04T16:03:31.313Z,49.70
2022-12-04T16:06:16.203Z,48.10
2022-12-04T16:08:47.176Z,55.50
2022-12-04T16:11:18.718Z,46.80
2022-12-04T16:14:08.532Z,40.80
2022-12-04T16:16:42.365Z,53.00
2022-12-04T16:19:32.500Z,50.50
2022-12-04T16:22:04.613Z,51.50
2022-12-04T16:24:33.000Z,42.20
2022-12-04T16:27:01.520Z,46.80
2022-12-04T16:29:31.652Z,49.80
2022-12-04T16:32:03.528Z,48.30
2022-12-04T16:34:32.570Z,46.80
2022-12-04T16:37:01.286Z,45.10
2022-12-04T16:39:29.989Z,44.80
2022-12-04T16:41:58.442Z,46.70
2022-12-04T16:44:26.835Z,45.10
2022-12-04T16:46:55.363Z,46.80
2022-12-04T16:49:23.866Z,43.30
2022-12-04T16:51:52.211Z,48.40
2022-12-04T16:54:20.544Z,43.90
2022-12-04T16:56:48.824Z,45.30
2022-12-04T16:59:17.451Z,41.00
2022-12-04T17:01:48.964Z,42.20
2022-12-04T17:04:18.181Z,40.60
2022-12-04T17:06:47.196Z,44.30
2022-12-04T17:09:15.730Z,44.30
2022-12-04T17:11:44.832Z,46.40
2022-12-04T17:14:13.479Z,47.20
2022-12-04T17:16:43.685Z,44.60
2022-12-04T17:19:12.616Z,47.20
2022-12-04T17:21:41.798Z,41.90
2022-12-04T17:24:10.095Z,44.70
2022-12-04T17:26:38.554Z,46.40
2022-12-04T17:29:06.802Z,48.20
2022-12-04T17:31:35.046Z,45.00
2022-12-04T17:34:03.598Z,41.10
2022-12-04T17:36:33.569Z,44.30
2022-12-04T17:39:02.200Z,45.50
2022-12-04T17:41:30.794Z,39.60
2022-12-04T17:44:01.534Z,36.50
2022-12-04T17:46:30.088Z,44.20
2022-12-04T17:49:01.549Z,42.10
2022-12-04T17:51:32.921Z,39.20
2022-12-04T17:54:01.990Z,45.00
2022-12-04T17:56:30.452Z,40.10
2022-12-04T17:58:59.301Z,40.00
2022-12-04T18:01:29.522Z,42.70
2022-12-04T18:04:00.165Z,34.20
2022-12-04T18:06:31.598Z,38.10
2022-12-04T18:09:00.345Z,39.50
2022-12-04T18:11:31.955Z,37.60
2022-12-04T18:14:12.286Z,37.00
2022-12-04T18:16:52.274Z,39.20
2022-12-04T18:19:23.259Z,36.20
2022-12-04T18:21:51.875Z,36.80
2022-12-04T18:24:23.547Z,42.40
2022-12-04T18:26:52.506Z,38.60
2022-12-04T18:29:23.865Z,44.40
2022-12-04T18:31:53.186Z,38.40
2022-12-04T18:34:22.475Z,43.00
2022-12-04T18:36:51.090Z,43.70
2022-12-04T18:39:22.311Z,38.00
2022-12-04T18:41:51.418Z,36.30
2022-12-04T18:44:20.735Z,36.50
2022-12-04T18:46:49.666Z,43.40
2022-12-04T18:49:17.999Z,39.90
2022-12-04T18:51:49.864Z,42.50
2022-12-04T18:54:23.707Z,41.80
2022-12-04T18:56:52.431Z,41.50
2022-12-04T18:59:27.059Z,38.20
2022-12-04T19:01:56.056Z,42.20
2022-12-04T19:04:25.986Z,44.60
2022-12-04T19:06:56.414Z,45.20
2022-12-04T19:12:17.177Z,41.80
2022-12-04T19:14:45.598Z,46.70
2022-12-04T19:17:15.253Z,44.50
2022-12-04T19:19:43.694Z,43.70
2022-12-04T19:22:12.175Z,43.20
2022-12-04T19:24:40.968Z,44.90
2022-12-04T19:27:12.335Z,44.30
2022-12-04T19:29:42.656Z,47.10
2022-12-04T19:32:12.267Z,39.50
2022-12-04T19:34:41.009Z,42.70
2022-12-04T19:37:10.142Z,39.10
2022-12-04T19:39:38.767Z,37.50
2022-12-04T19:42:07.898Z,36.00
2022-12-04T19:44:52.248Z,36.20
2022-12-04T19:47:20.689Z,34.60
2022-12-04T19:49:49.075Z,32.10
2022-12-04T19:52:17.933Z,35.00
2022-12-04T19:54:46.399Z,30.80
2022-12-04T19:57:15.237Z,29.30
2022-12-04T19:59:46.644Z,34.10
2022-12-04T20:02:15.746Z,30.50
2022-12-04T20:04:44.737Z,30.70
2022-12-04T20:07:13.382Z,32.40
2022-12-04T20:09:43.134Z,31.20
2022-12-04T20:12:14.219Z,30.60
2022-12-04T20:14:43.240Z,34.50
2022-12-04T20:17:11.803Z,33.90
2022-12-04T20:19:40.920Z,34.70
2022-12-04T20:22:12.271Z,37.20
2022-12-04T20:24:40.964Z,38.10
2022-12-04T20:27:14.357Z,39.10
2022-12-04T20:29:44.314Z,33.70
2022-12-04T20:32:14.072Z,32.00
2022-12-04T20:34:43.910Z,29.10
2022-12-04T20:37:12.675Z,30.50
2022-12-04T20:39:41.403Z,33.70
2022-12-04T20:42:09.881Z,31.60
2022-12-04T20:44:38.168Z,31.40
2022-12-04T20:47:06.643Z,31.00
2022-12-04T20:49:35.056Z,33.70
2022-12-04T20:52:03.800Z,32.90
2022-12-04T20:54:37.884Z,29.80
2022-12-04T20:57:10.251Z,33.10
2022-12-04T20:59:38.633Z,35.30
2022-12-04T21:02:07.143Z,34.60
2022-12-04T21:04:37.959Z,34.60
2022-12-04T21:07:07.160Z,31.10
2022-12-04T21:09:36.417Z,35.50
2022-12-04T21:12:25.416Z,35.00
2022-12-04T21:15:12.695Z,33.00
2022-12-04T21:17:41.059Z,36.80
2022-12-04T21:20:11.056Z,30.80
2022-12-04T21:22:39.420Z,34.00
2022-12-04T21:25:09.376Z,34.40
2022-12-04T21:27:37.887Z,30.60
2022-12-04T21:30:08.433Z,33.90
2022-12-04T21:32:37.524Z,34.20
2022-12-04T21:35:06.519Z,30.40
2022-12-04T21:37:35.187Z,33.00
2022-12-04T21:40:04.195Z,32.30
2022-12-04T21:42:34.957Z,37.60
2022-12-04T21:45:06.585Z,33.80
2022-12-04T21:47:36.304Z,33.40
2022-12-04T21:50:06.012Z,35.40
2022-12-04T21:52:34.572Z,33.90
2022-12-04T21:55:03.015Z,33.90
2022-12-04T21:57:31.251Z,34.90
2022-12-04T21:59:59.531Z,34.00
2022-12-04T22:02:28.062Z,33.90
2022-12-04T22:04:56.558Z,30.70
2022-12-04T22:07:27.360Z,28.70
2022-12-04T22:09:56.062Z,30.40
2022-12-04T22:12:48.327Z,31.60
2022-12-04T22:16:02.918Z,32.10
2022-12-04T22:18:39.746Z,31.40
2022-12-04T22:21:14.209Z,32.20
2022-12-04T22:23:43.318Z,35.40
2022-12-04T22:26:13.983Z,32.80
2022-12-04T22:28:42.732Z,36.30
2022-12-04T22:31:17.365Z,37.80
2022-12-04T22:33:53.690Z,35.60
2022-12-04T22:36:25.778Z,35.00
2022-12-04T22:39:10.829Z,34.00
2022-12-04T22:41:39.661Z,33.30
2022-12-04T22:44:07.893Z,33.40
2022-12-04T22:46:36.266Z,34.20
2022-12-04T22:49:04.581Z,32.90
2022-12-04T22:51:32.764Z,36.50
2022-12-04T22:54:00.996Z,38.50
2022-12-04T22:56:31.654Z,40.00
2022-12-04T22:59:00.596Z,37.70
2022-12-04T23:01:34.325Z,36.60
2022-12-04T23:04:03.837Z,38.30
2022-12-04T23:06:34.117Z,40.30
2022-12-04T23:09:06.534Z,37.70
2022-12-04T23:11:35.921Z,38.60
2022-12-04T23:14:06.713Z,35.10
2022-12-04T23:16:37.055Z,34.90
2022-12-04T23:19:07.004Z,35.60
2022-12-04T23:21:35.758Z,37.60
2022-12-04T23:24:04.583Z,36.40
2022-12-04T23:26:39.219Z,30.20
2022-12-04T23:29:29.746Z,27.00
2022-12-04T23:31:56.420Z,30.70
2022-12-04T23:34:24.984Z,31.70
2022-12-04T23:36:54.008Z,29.60
2022-12-04T23:39:22.615Z,31.80
2022-12-04T23:41:51.271Z,30.50
2022-12-04T23:44:19.851Z,30.00
2022-12-04T23:46:48.385Z,30.00
2022-12-04T23:49:17.014Z,29.90
2022-12-04T23:51:45.388Z,31.30
2022-12-04T23:54:13.675Z,34.70
2022-12-04T23:56:42.497Z,33.20
2022-12-04T23:59:10.835Z,26.70
